createdAt,value
2019-01-18T00:00:36.620Z,97791.14
2019-01-18T00:03:08.462Z,97800.55
2019-01-18T00:05:40.268Z,97802.03
2019-01-18T00:08:12.070Z,97808.77
2019-01-18T00:10:46.366Z,97814.56
2019-01-18T00:13:18.171Z,97815.64
2019-01-18T00:15:50.974Z,97817.55
2019-01-18T00:18:24.254Z,97817.55
2019-01-18T00:20:56.089Z,97813.81
2019-01-18T00:23:29.021Z,97813.81
2019-01-18T00:26:02.409Z,97820.91
2019-01-18T00:28:35.852Z,97822.56
2019-01-18T00:31:07.680Z,97821.59
2019-01-18T00:33:41.057Z,97824.49
2019-01-18T00:36:12.890Z,97825.56
2019-01-18T00:38:44.708Z,97828.08
2019-01-18T00:41:16.539Z,97830.05
2019-01-18T00:43:50.439Z,97828.22
2019-01-18T00:46:23.255Z,97832.02
2019-01-18T00:48:57.126Z,97832.80
2019-01-18T00:51:31.761Z,97840.32
2019-01-18T00:54:03.641Z,97836.34
2019-01-18T00:56:35.462Z,97839.25
2019-01-18T00:59:07.337Z,97843.41
2019-01-18T01:01:40.684Z,97840.90
2019-01-18T01:04:12.512Z,97857.45
2019-01-18T01:06:44.347Z,97849.35
2019-01-18T01:09:17.525Z,97849.17
2019-01-18T01:11:49.365Z,97854.41
2019-01-18T01:14:22.796Z,97853.44
2019-01-18T01:16:54.725Z,97862.98
2019-01-18T01:19:26.536Z,97864.48
2019-01-18T01:21:58.366Z,97866.20
2019-01-18T01:24:31.306Z,97871.82
2019-01-18T01:27:03.223Z,97879.03
2019-01-18T01:29:43.186Z,97885.05
2019-01-18T01:32:14.568Z,97884.26
2019-01-18T01:34:46.387Z,97890.48
2019-01-18T01:37:21.205Z,97892.81
2019-01-18T01:39:54.743Z,97897.00
2019-01-18T01:42:26.573Z,97900.16
2019-01-18T01:44:59.857Z,97897.72
2019-01-18T01:47:31.668Z,97904.48
2019-01-18T01:50:03.545Z,97902.38
2019-01-18T01:52:35.347Z,97903.66
2019-01-18T01:55:08.242Z,97901.22
2019-01-18T01:57:40.059Z,97910.47
2019-01-18T02:00:23.997Z,97913.42
2019-01-18T02:02:55.794Z,97919.50
2019-01-18T02:05:27.639Z,97923.97
2019-01-18T02:07:59.456Z,97921.66
2019-01-18T02:10:31.266Z,97937.88
2019-01-18T02:13:04.718Z,97931.76
2019-01-18T02:15:36.553Z,97931.70
2019-01-18T02:18:08.355Z,97933.39
2019-01-18T02:20:40.196Z,97936.80
2019-01-18T02:23:12.096Z,97947.72
2019-01-18T02:25:43.931Z,97947.39
2019-01-18T02:28:17.867Z,97949.88
2019-01-18T02:30:49.694Z,97957.02
2019-01-18T02:33:21.526Z,97959.59
2019-01-18T02:35:53.342Z,97960.52
2019-01-18T02:38:25.186Z,97966.77
2019-01-18T02:40:56.981Z,97962.38
2019-01-18T02:43:28.824Z,97963.40
2019-01-18T02:46:00.649Z,97971.33
2019-01-18T02:48:32.460Z,97968.95
2019-01-18T02:51:04.265Z,97974.80
2019-01-18T02:53:37.195Z,97972.55
2019-01-18T02:56:09.019Z,97975.00
2019-01-18T02:58:40.843Z,97973.22
2019-01-18T03:01:12.654Z,97973.52
2019-01-18T03:03:44.497Z,97975.20
2019-01-18T03:06:16.307Z,97981.58
2019-01-18T03:08:48.148Z,97980.52
2019-01-18T03:11:19.957Z,97981.11
2019-01-18T03:13:51.860Z,97985.52
2019-01-18T03:16:23.691Z,97986.88
2019-01-18T03:18:56.500Z,97986.20
2019-01-18T03:21:28.309Z,97993.12
2019-01-18T03:24:00.133Z,97996.23
2019-01-18T03:26:31.977Z,97998.34
2019-01-18T03:29:03.793Z,97994.97
2019-01-18T03:31:35.654Z,97999.43
2019-01-18T03:34:07.433Z,98001.88
2019-01-18T03:36:41.040Z,98004.98
2019-01-18T03:39:12.844Z,98008.23
2019-01-18T03:41:44.673Z,98014.01
2019-01-18T03:44:16.504Z,98017.31
2019-01-18T03:46:48.320Z,98020.52
2019-01-18T03:49:21.290Z,98027.37
2019-01-18T03:51:53.100Z,98026.64
2019-01-18T03:54:24.950Z,98028.19
2019-01-18T03:56:56.739Z,98035.98
2019-01-18T03:59:28.658Z,98035.36
2019-01-18T04:02:00.451Z,98049.79
2019-01-18T04:04:32.281Z,98050.06
2019-01-18T04:07:04.077Z,98050.30
2019-01-18T04:09:36.004Z,98057.02
2019-01-18T04:12:07.819Z,98050.96
2019-01-18T04:14:39.630Z,98056.88
2019-01-18T04:17:14.174Z,98055.73
2019-01-18T04:19:45.993Z,98058.57
2019-01-18T04:22:17.795Z,98056.13
2019-01-18T04:24:49.619Z,98059.92
2019-01-18T04:27:21.424Z,98060.29
2019-01-18T04:29:53.245Z,98068.76
2019-01-18T04:32:25.046Z,98063.47
2019-01-18T04:34:56.848Z,98072.37
2019-01-18T04:37:28.681Z,98064.70
2019-01-18T04:40:00.494Z,98068.44
2019-01-18T04:42:32.306Z,98068.56
2019-01-18T04:45:04.037Z,98078.94
2019-01-18T04:47:35.868Z,98083.05
2019-01-18T04:50:12.916Z,98086.85
2019-01-18T04:52:45.024Z,98089.63
2019-01-18T04:55:17.130Z,98093.87
2019-01-18T04:57:48.958Z,98098.66
2019-01-18T05:00:26.838Z,98098.79
2019-01-18T05:02:58.656Z,98103.36
2019-01-18T05:05:30.484Z,98109.34
2019-01-18T05:08:02.304Z,98109.41
2019-01-18T05:10:36.751Z,98112.21
2019-01-18T05:13:07.657Z,98113.63
2019-01-18T05:15:40.821Z,98116.14
2019-01-18T05:18:12.586Z,98124.18
2019-01-18T05:20:44.435Z,98124.70
2019-01-18T05:23:16.263Z,98127.81
2019-01-18T05:25:48.082Z,98132.57
2019-01-18T05:28:19.898Z,98136.44
2019-01-18T05:30:51.719Z,98141.20
2019-01-18T05:33:23.521Z,98146.81
2019-01-18T05:35:55.445Z,98152.80
2019-01-18T05:38:27.244Z,98149.86
2019-01-18T05:40:59.062Z,98156.98
2019-01-18T05:43:30.862Z,98157.56
2019-01-18T05:46:06.836Z,98163.95
2019-01-18T05:48:41.402Z,98163.24
2019-01-18T05:51:13.220Z,98165.11
2019-01-18T05:53:45.092Z,98175.03
2019-01-18T05:56:16.942Z,98180.13
2019-01-18T05:58:48.768Z,98180.92
2019-01-18T06:01:26.580Z,98185.41
2019-01-18T06:06:40.033Z,98188.53
2019-01-18T06:09:11.876Z,98193.66
2019-01-18T06:11:46.707Z,98187.86
2019-01-18T06:14:18.536Z,98191.30
2019-01-18T06:16:50.388Z,98194.30
2019-01-18T06:19:22.219Z,98200.51
2019-01-18T06:21:54.068Z,98198.76
2019-01-18T06:24:31.436Z,98205.05
2019-01-18T06:27:01.811Z,98209.25
2019-01-18T06:29:33.682Z,98212.11
2019-01-18T06:32:07.864Z,98209.19
2019-01-18T06:34:41.803Z,98216.70
2019-01-18T06:37:16.042Z,98225.61
2019-01-18T06:39:49.070Z,98225.24
2019-01-18T06:42:26.818Z,98229.70
2019-01-18T06:45:00.242Z,98229.76
2019-01-18T06:47:32.137Z,98230.65
2019-01-18T06:50:03.926Z,98227.82
2019-01-18T06:52:35.757Z,98239.30
2019-01-18T06:55:13.417Z,98241.59
2019-01-18T06:57:45.369Z,98244.70
2019-01-18T07:00:33.440Z,98250.74
2019-01-18T07:03:04.358Z,98251.56
2019-01-18T07:05:36.190Z,98265.80
2019-01-18T07:08:08.026Z,98265.50
2019-01-18T07:10:39.850Z,98269.36
2019-01-18T07:13:11.666Z,98269.02
2019-01-18T07:15:43.515Z,98274.00
2019-01-18T07:18:17.093Z,98275.63
2019-01-18T07:20:48.985Z,98281.96
2019-01-18T07:23:20.817Z,98284.14
2019-01-18T07:25:52.658Z,98291.64
2019-01-18T07:28:24.473Z,98290.47
2019-01-18T07:30:56.297Z,98296.28
2019-01-18T07:33:29.140Z,98304.30
2019-01-18T07:36:00.924Z,98305.70
2019-01-18T07:38:36.334Z,98309.11
2019-01-18T07:41:08.160Z,98309.58
2019-01-18T07:43:39.987Z,98307.34
2019-01-18T07:46:19.403Z,98315.02
2019-01-18T07:48:51.325Z,98318.66
2019-01-18T07:51:23.146Z,98319.14
2019-01-18T07:53:56.094Z,98334.95
2019-01-18T07:56:29.556Z,98336.64
2019-01-18T07:59:04.423Z,98337.48
2019-01-18T08:01:36.247Z,98335.67
2019-01-18T08:04:10.978Z,98341.42
2019-01-18T08:06:45.227Z,98345.29
2019-01-18T08:09:18.691Z,98347.33
2019-01-18T08:11:50.522Z,98347.70
2019-01-18T08:14:22.368Z,98344.00
2019-01-18T08:16:54.197Z,98349.84
2019-01-18T08:19:26.031Z,98351.33
2019-01-18T08:21:57.857Z,98358.06
2019-01-18T08:24:29.673Z,98362.28
2019-01-18T08:27:01.511Z,98357.48
2019-01-18T08:29:33.316Z,98353.30
2019-01-18T08:32:05.253Z,98356.00
2019-01-18T08:34:37.186Z,98359.07
2019-01-18T08:37:09.997Z,98364.17
2019-01-18T08:39:41.826Z,98366.09
2019-01-18T08:42:13.662Z,98375.47
2019-01-18T08:44:45.457Z,98378.22
2019-01-18T08:47:18.374Z,98378.13
2019-01-18T08:49:50.236Z,98379.74
2019-01-18T08:52:22.093Z,98386.19
2019-01-18T08:54:59.695Z,98383.52
2019-01-18T08:57:31.501Z,98395.14
2019-01-18T09:00:03.924Z,98390.75
2019-01-18T09:02:35.728Z,98390.99
2019-01-18T09:05:13.006Z,98396.34
2019-01-18T09:07:44.849Z,98391.23
2019-01-18T09:10:19.001Z,98394.34
2019-01-18T09:12:50.823Z,98400.80
2019-01-18T09:15:22.867Z,98397.33
2019-01-18T09:17:54.682Z,98398.92
2019-01-18T09:20:28.391Z,98399.45
2019-01-18T09:23:00.221Z,98405.31
2019-01-18T09:25:32.050Z,98414.23
2019-01-18T09:28:03.862Z,98417.88
2019-01-18T09:30:36.295Z,98422.87
2019-01-18T09:33:10.100Z,98421.94
2019-01-18T09:35:42.868Z,98428.22
2019-01-18T09:38:17.948Z,98427.22
2019-01-18T09:40:50.037Z,98434.02
2019-01-18T09:43:24.706Z,98434.89
2019-01-18T09:45:56.584Z,98436.30
2019-01-18T09:48:28.401Z,98439.48
2019-01-18T09:51:00.224Z,98437.19
2019-01-18T09:53:32.069Z,98442.69
2019-01-18T09:56:04.489Z,98443.58
2019-01-18T09:58:36.297Z,98445.22
2019-01-18T10:01:08.220Z,98445.92
2019-01-18T10:03:40.048Z,98440.05
2019-01-18T10:06:11.851Z,98449.39
2019-01-18T10:08:43.722Z,98444.00
2019-01-18T10:11:15.562Z,98442.45
2019-01-18T10:13:47.422Z,98444.69
2019-01-18T10:16:19.259Z,98435.38
2019-01-18T10:18:51.119Z,98435.76
2019-01-18T10:21:23.010Z,98432.97
2019-01-18T10:23:56.201Z,98432.92
2019-01-18T10:26:30.135Z,98435.35
2019-01-18T10:29:04.400Z,98429.48
2019-01-18T10:31:36.235Z,98427.61
2019-01-18T10:34:08.052Z,98427.20
2019-01-18T10:36:40.938Z,98429.92
2019-01-18T10:39:12.773Z,98429.46
2019-01-18T10:41:44.629Z,98431.45
2019-01-18T10:44:16.404Z,98426.44
2019-01-18T10:46:48.243Z,98418.56
2019-01-18T10:49:20.065Z,98425.80
2019-01-18T10:51:51.891Z,98421.92
2019-01-18T10:54:23.691Z,98425.80
2019-01-18T10:56:55.544Z,98421.33
2019-01-18T10:59:27.373Z,98424.89
2019-01-18T11:02:03.415Z,98425.03
2019-01-18T11:04:32.799Z,98422.06
2019-01-18T11:07:04.717Z,98423.59
2019-01-18T11:09:36.539Z,98420.26
2019-01-18T11:12:09.457Z,98422.98
2019-01-18T11:14:41.290Z,98427.41
2019-01-18T11:17:12.903Z,98424.80
2019-01-18T11:19:44.739Z,98424.17
2019-01-18T11:22:16.693Z,98416.36
2019-01-18T11:24:48.248Z,98414.79
2019-01-18T11:27:20.077Z,98414.23
2019-01-18T11:29:51.942Z,98413.91
2019-01-18T11:32:23.496Z,98413.58
2019-01-18T11:34:55.063Z,98416.50
2019-01-18T11:37:28.490Z,98416.08
2019-01-18T11:40:00.435Z,98410.52
2019-01-18T11:42:32.236Z,98405.44
2019-01-18T11:45:04.201Z,98405.20
2019-01-18T11:47:36.009Z,98405.59
2019-01-18T11:50:13.230Z,98405.45
2019-01-18T11:52:45.021Z,98406.02
2019-01-18T11:55:16.844Z,98407.98
2019-01-18T11:57:48.886Z,98402.28
2019-01-18T12:00:23.880Z,98402.73
2019-01-18T12:02:55.714Z,98398.47
2019-01-18T12:05:27.537Z,98392.91
2019-01-18T12:07:59.418Z,98388.00
2019-01-18T12:10:32.952Z,98392.58
2019-01-18T12:13:05.095Z,98391.02
2019-01-18T12:15:36.903Z,98388.56
2019-01-18T12:18:08.766Z,98387.73
2019-01-18T12:20:40.585Z,98386.41
2019-01-18T12:23:12.400Z,98389.83
2019-01-18T12:25:46.246Z,98393.58
2019-01-18T12:28:18.094Z,98389.95
2019-01-18T12:30:49.911Z,98393.56
2019-01-18T12:33:21.818Z,98395.26
2019-01-18T12:35:56.663Z,98397.91
2019-01-18T12:38:28.510Z,98388.06
2019-01-18T12:41:00.342Z,98392.34
2019-01-18T12:43:32.183Z,98390.63
2019-01-18T12:46:04.077Z,98384.79
2019-01-18T12:48:35.931Z,98390.75
2019-01-18T12:51:07.803Z,98393.64
2019-01-18T12:53:39.798Z,98387.88
2019-01-18T12:56:11.673Z,98385.34
2019-01-18T12:58:43.532Z,98388.97
2019-01-18T13:01:15.363Z,98390.13
2019-01-18T13:03:47.214Z,98386.31
2019-01-18T13:06:19.049Z,98383.55
2019-01-18T13:08:50.907Z,98387.80
2019-01-18T13:11:22.734Z,98383.16
2019-01-18T13:13:54.589Z,98375.27
2019-01-18T13:16:46.239Z,98377.59
2019-01-18T13:19:27.599Z,98376.69
2019-01-18T13:21:59.445Z,98378.48
2019-01-18T13:24:31.308Z,98366.22
2019-01-18T13:27:03.128Z,98366.16
2019-01-18T13:29:34.995Z,98370.62
2019-01-18T13:32:06.873Z,98365.32
2019-01-18T13:34:38.734Z,98367.25
2019-01-18T13:37:12.903Z,98366.08
2019-01-18T13:39:44.458Z,98376.89
2019-01-18T13:42:16.295Z,98376.23
2019-01-18T13:44:48.122Z,98369.50
2019-01-18T13:47:20.093Z,98376.70
2019-01-18T13:49:52.517Z,98382.90
2019-01-18T13:52:24.625Z,98384.75
2019-01-18T13:54:57.134Z,98381.20
2019-01-18T13:57:33.872Z,98380.68
2019-01-18T14:00:07.765Z,98380.91
2019-01-18T14:02:40.648Z,98383.56
2019-01-18T14:05:12.998Z,98383.06
2019-01-18T14:07:47.477Z,98390.49
2019-01-18T14:10:26.140Z,98386.95
2019-01-18T14:13:05.495Z,98389.96
2019-01-18T14:15:37.062Z,98395.92
2019-01-18T14:18:08.910Z,98399.67
2019-01-18T14:20:41.921Z,98396.95
2019-01-18T14:23:13.836Z,98395.13
2019-01-18T14:25:45.735Z,98393.64
2019-01-18T14:28:17.343Z,98392.84
2019-01-18T14:30:48.881Z,98390.08
2019-01-18T14:33:23.057Z,98386.98
2019-01-18T14:35:54.918Z,98393.82
2019-01-18T14:38:26.511Z,98396.14
2019-01-18T14:41:00.854Z,98389.13
2019-01-18T14:43:32.715Z,98392.25
2019-01-18T14:46:04.543Z,98394.38
2019-01-18T14:48:36.413Z,98392.65
2019-01-18T14:51:08.239Z,98392.72
2019-01-18T14:53:40.074Z,98390.27
2019-01-18T14:56:13.705Z,98393.75
2019-01-18T14:58:45.263Z,98399.79
2019-01-18T15:01:16.805Z,98392.03
2019-01-18T15:03:48.766Z,98392.78
2019-01-18T15:06:20.642Z,98392.53
2019-01-18T15:08:53.859Z,98391.84
2019-01-18T15:11:25.702Z,98391.38
2019-01-18T15:13:57.265Z,98386.37
2019-01-18T15:16:29.113Z,98391.08
2019-01-18T15:19:01.286Z,98394.49
2019-01-18T15:21:32.892Z,98396.72
2019-01-18T15:24:04.559Z,98399.70
2019-01-18T15:26:36.427Z,98395.19
2019-01-18T15:29:11.016Z,98394.73
2019-01-18T15:31:42.879Z,98394.03
2019-01-18T15:34:14.899Z,98392.14
2019-01-18T15:36:46.559Z,98398.81
2019-01-18T15:39:18.402Z,98396.19
2019-01-18T15:41:49.947Z,98392.91
2019-01-18T15:44:22.638Z,98391.81
2019-01-18T15:46:54.473Z,98390.78
2019-01-18T15:49:28.147Z,98391.61
2019-01-18T15:52:00.086Z,98394.15
2019-01-18T15:54:33.235Z,98391.95
2019-01-18T15:57:08.066Z,98396.54
2019-01-18T15:59:39.981Z,98395.56
2019-01-18T16:02:11.842Z,98390.13
2019-01-18T16:04:46.436Z,98392.70
2019-01-18T16:07:18.296Z,98400.70
2019-01-18T16:09:50.181Z,98403.48
2019-01-18T16:12:23.643Z,98401.69
2019-01-18T16:14:55.531Z,98399.95
2019-01-18T16:17:32.357Z,98394.73
2019-01-18T16:20:04.941Z,98398.95
2019-01-18T16:22:36.781Z,98391.30
2019-01-18T16:25:14.070Z,98397.06
2019-01-18T16:27:45.898Z,98395.30
2019-01-18T16:30:20.119Z,98395.77
2019-01-18T16:32:52.299Z,98399.00
2019-01-18T16:35:24.348Z,98398.28
2019-01-18T16:37:56.223Z,98398.40
2019-01-18T16:40:31.798Z,98395.53
2019-01-18T16:43:24.996Z,98398.23
2019-01-18T16:45:56.854Z,98398.11
2019-01-18T16:48:28.682Z,98392.59
2019-01-18T16:51:00.514Z,98391.00
2019-01-18T16:53:34.909Z,98385.13
2019-01-18T16:56:06.780Z,98386.30
2019-01-18T16:58:38.856Z,98386.10
2019-01-18T17:01:11.680Z,98387.09
2019-01-18T17:03:43.643Z,98388.50
2019-01-18T17:06:15.643Z,98386.92
2019-01-18T17:08:51.670Z,98383.51
2019-01-18T17:11:23.658Z,98384.56
2019-01-18T17:13:55.599Z,98379.20
2019-01-18T17:16:27.549Z,98385.53
2019-01-18T17:18:59.657Z,98381.78
2019-01-18T17:21:31.622Z,98383.09
2019-01-18T17:24:03.497Z,98379.55
2019-01-18T17:26:35.425Z,98376.63
2019-01-18T17:29:09.098Z,98374.98
2019-01-18T17:31:41.122Z,98378.64
2019-01-18T17:34:13.065Z,98370.13
2019-01-18T17:37:16.035Z,98381.78
2019-01-18T17:40:19.742Z,98377.81
2019-01-18T17:43:27.894Z,98378.44
2019-01-18T17:46:38.337Z,98384.87
2019-01-18T17:50:07.729Z,98379.46
2019-01-18T17:53:38.640Z,98379.72
2019-01-18T17:57:18.441Z,98376.33
2019-01-18T18:00:33.797Z,98372.05
2019-01-18T18:03:47.838Z,98382.27
2019-01-18T18:07:23.282Z,98380.78
2019-01-18T18:10:58.321Z,98380.56
2019-01-18T18:13:48.494Z,98381.95
2019-01-18T18:17:01.154Z,98380.66
2019-01-18T18:21:00.181Z,98386.27
2019-01-18T18:24:57.801Z,98390.73
2019-01-18T18:28:08.120Z,98388.25
2019-01-18T18:31:39.535Z,98386.66
2019-01-18T18:35:00.924Z,98384.48
2019-01-18T18:38:34.996Z,98386.66
2019-01-18T18:42:02.526Z,98381.70
2019-01-18T18:45:32.600Z,98383.53
2019-01-18T18:48:27.647Z,98369.98
2019-01-18T18:51:49.615Z,98369.36
2019-01-18T18:55:30.811Z,98376.05
2019-01-18T18:59:03.022Z,98369.75
2019-01-18T19:02:08.056Z,98365.44
2019-01-18T19:05:19.681Z,98365.44
2019-01-18T19:09:08.525Z,98358.09
2019-01-18T19:12:10.694Z,98361.22
2019-01-18T19:15:47.433Z,98356.55
2019-01-18T19:19:10.568Z,98354.95
2019-01-18T19:22:28.366Z,98354.20
2019-01-18T19:26:15.224Z,98346.91
2019-01-18T19:29:57.790Z,98350.69
2019-01-18T19:33:22.704Z,98342.09
2019-01-18T19:37:09.699Z,98338.73
2019-01-18T19:40:58.065Z,98339.79
2019-01-18T19:44:57.069Z,98335.80
2019-01-18T19:47:42.981Z,98335.26
2019-01-18T19:51:30.019Z,98327.91
2019-01-18T19:54:43.673Z,98333.66
2019-01-18T19:57:50.967Z,98333.79
2019-01-18T20:01:03.405Z,98335.84
2019-01-18T20:04:47.363Z,98337.13
2019-01-18T20:08:20.284Z,98331.13
2019-01-18T20:12:00.448Z,98325.16
2019-01-18T20:15:07.522Z,98336.45
2019-01-18T20:18:37.823Z,98330.16
2019-01-18T20:21:51.290Z,98323.23
2019-01-18T20:25:17.805Z,98322.36
2019-01-18T20:28:40.097Z,98320.75
2019-01-18T20:31:56.258Z,98315.52
2019-01-18T20:35:11.212Z,98321.84
2019-01-18T20:38:00.117Z,98318.31
2019-01-18T20:41:05.525Z,98314.55
2019-01-18T20:44:28.343Z,98317.08
2019-01-18T20:47:49.140Z,98318.73
2019-01-18T20:51:30.467Z,98316.98
2019-01-18T20:54:54.750Z,98321.20
2019-01-18T20:58:45.134Z,98323.27
2019-01-18T21:02:11.912Z,98328.03
2019-01-18T21:05:45.218Z,98323.72
2019-01-18T21:09:05.205Z,98317.48
2019-01-18T21:12:37.955Z,98323.02
2019-01-18T21:16:10.035Z,98317.25
2019-01-18T21:20:06.702Z,98318.27
2019-01-18T21:23:39.779Z,98311.59
2019-01-18T21:26:50.739Z,98317.83
2019-01-18T21:30:16.690Z,98314.20
2019-01-18T21:33:40.702Z,98314.04
2019-01-18T21:37:19.584Z,98309.03
2019-01-18T21:40:20.960Z,98313.75
2019-01-18T21:43:42.043Z,98312.84
2019-01-18T21:47:41.377Z,98316.73
2019-01-18T21:51:02.452Z,98317.48
2019-01-18T21:54:22.753Z,98316.44
2019-01-18T21:57:37.120Z,98322.86
2019-01-18T22:01:38.603Z,98323.73
2019-01-18T22:04:50.111Z,98330.64
2019-01-18T22:08:29.792Z,98333.88
2019-01-18T22:12:26.261Z,98333.67
2019-01-18T22:16:02.720Z,98336.44
2019-01-18T22:19:28.838Z,98333.30
2019-01-18T22:22:40.423Z,98337.23
2019-01-18T22:25:57.250Z,98330.03
2019-01-18T22:29:15.454Z,98337.15
2019-01-18T22:33:02.957Z,98342.95
2019-01-18T22:36:18.782Z,98338.06
2019-01-18T22:40:06.164Z,98340.66
2019-01-18T22:43:47.406Z,98338.80
2019-01-18T22:47:17.466Z,98337.89
2019-01-18T22:50:43.621Z,98335.23
2019-01-18T22:54:06.503Z,98334.38
2019-01-18T22:57:30.966Z,98332.63
2019-01-18T23:01:07.897Z,98328.58
2019-01-18T23:04:25.560Z,98333.99
2019-01-18T23:08:01.027Z,98326.42
2019-01-18T23:11:09.228Z,98326.70
2019-01-18T23:14:38.390Z,98326.33
2019-01-18T23:17:51.363Z,98322.91
2019-01-18T23:21:19.910Z,98315.73
2019-01-18T23:24:47.987Z,98320.17
2019-01-18T23:28:18.479Z,98307.67
2019-01-18T23:31:15.942Z,98300.72
2019-01-18T23:34:23.283Z,98306.47
2019-01-18T23:37:39.753Z,98301.95
2019-01-18T23:40:59.549Z,98302.94
2019-01-18T23:44:29.646Z,98293.75
2019-01-18T23:47:57.013Z,98295.03
2019-01-18T23:51:00.334Z,98295.16
2019-01-18T23:54:09.631Z,98288.16
2019-01-18T23:57:43.681Z,98289.23
